createdAt,value
2023-04-15T00:01:40.539Z,94.27
2023-04-15T00:04:07.145Z,93.98
2023-04-15T00:06:33.908Z,94.20
2023-04-15T00:09:01.068Z,93.31
2023-04-15T00:11:27.950Z,93.44
2023-04-15T00:13:56.339Z,93.30
2023-04-15T00:16:23.036Z,93.25
2023-04-15T00:18:49.852Z,93.21
2023-04-15T00:21:18.031Z,92.33
2023-04-15T00:23:44.563Z,92.43
2023-04-15T00:26:11.036Z,92.42
2023-04-15T00:28:37.621Z,91.58
2023-04-15T00:31:04.421Z,91.47
2023-04-15T00:33:36.703Z,90.63
2023-04-15T00:36:05.512Z,90.34
2023-04-15T00:38:32.021Z,90.70
2023-04-15T00:40:59.094Z,90.32
2023-04-15T00:43:30.996Z,90.29
2023-04-15T00:45:59.612Z,90.39
2023-04-15T00:48:28.440Z,90.05
2023-04-15T00:50:55.139Z,90.64
2023-04-15T00:53:21.697Z,90.44
2023-04-15T00:55:48.281Z,91.10
2023-04-15T00:58:15.280Z,90.89
2023-04-15T01:05:58.838Z,92.51
2023-04-15T01:08:28.346Z,93.13
2023-04-15T01:10:57.124Z,94.15
2023-04-15T01:13:28.812Z,94.86
2023-04-15T01:15:56.942Z,95.27
2023-04-15T01:18:23.940Z,95.50
2023-04-15T01:20:50.540Z,95.79
2023-04-15T01:23:17.514Z,95.91
2023-04-15T01:25:48.565Z,96.16
2023-04-15T01:28:19.635Z,96.58
2023-04-15T01:30:46.151Z,96.16
2023-04-15T01:33:12.665Z,95.79
2023-04-15T01:35:45.494Z,95.21
2023-04-15T01:38:12.444Z,95.10
2023-04-15T01:40:39.611Z,94.87
2023-04-15T01:43:06.192Z,94.85
2023-04-15T01:45:32.683Z,94.81
2023-04-15T01:47:59.250Z,93.88
2023-04-15T01:50:33.531Z,94.09
2023-04-15T01:52:59.993Z,93.86
2023-04-15T01:55:27.282Z,93.44
2023-04-15T01:57:55.724Z,93.25
2023-04-15T02:00:23.102Z,93.50
2023-04-15T02:02:49.706Z,93.77
2023-04-15T02:05:16.430Z,93.41
2023-04-15T02:07:43.654Z,93.39
2023-04-15T02:10:13.854Z,93.39
2023-04-15T02:12:40.886Z,93.79
2023-04-15T02:15:08.027Z,93.64
2023-04-15T02:17:35.820Z,94.06
2023-04-15T02:20:04.591Z,94.35
2023-04-15T02:22:33.053Z,94.64
2023-04-15T02:24:59.587Z,94.58
2023-04-15T02:27:28.414Z,94.71
2023-04-15T02:29:54.986Z,95.52
2023-04-15T02:32:23.339Z,95.40
2023-04-15T02:34:50.097Z,95.85
2023-04-15T02:37:17.119Z,96.17
2023-04-15T02:39:43.976Z,95.25
2023-04-15T02:42:12.267Z,95.44
2023-04-15T02:44:39.368Z,95.12
2023-04-15T02:47:07.156Z,95.08
2023-04-15T02:49:35.637Z,94.24
2023-04-15T02:52:02.351Z,93.46
2023-04-15T02:54:29.154Z,93.40
2023-04-15T02:56:56.473Z,93.93
2023-04-15T02:59:23.045Z,93.88
2023-04-15T03:01:49.735Z,93.41
2023-04-15T03:04:16.659Z,93.40
2023-04-15T03:06:43.692Z,93.26
2023-04-15T03:09:10.336Z,92.79
2023-04-15T03:11:42.416Z,92.74
2023-04-15T03:14:08.971Z,92.83
2023-04-15T03:16:35.557Z,93.41
2023-04-15T03:19:06.535Z,92.93
2023-04-15T03:21:33.159Z,93.60
2023-04-15T03:23:59.613Z,92.93
2023-04-15T03:26:30.595Z,93.45
2023-04-15T03:28:57.960Z,93.02
2023-04-15T03:31:26.908Z,92.01
2023-04-15T03:33:55.159Z,91.73
2023-04-15T03:36:21.789Z,90.86
2023-04-15T03:38:49.388Z,89.90
2023-04-15T03:41:23.869Z,89.16
2023-04-15T03:43:52.151Z,90.08
2023-04-15T03:46:22.402Z,92.59
2023-04-15T03:48:49.045Z,93.69
2023-04-15T03:51:15.575Z,92.69
2023-04-15T03:53:42.051Z,91.40
2023-04-15T03:56:08.779Z,90.46
2023-04-15T03:58:35.293Z,89.67
2023-04-15T04:01:02.119Z,90.27
2023-04-15T04:03:35.352Z,92.16
2023-04-15T04:06:02.418Z,93.81
2023-04-15T04:08:28.912Z,95.08
2023-04-15T04:10:57.199Z,95.72
2023-04-15T04:13:24.270Z,93.79
2023-04-15T04:15:50.896Z,90.12
2023-04-15T04:18:19.223Z,86.75
2023-04-15T04:20:45.804Z,82.97
2023-04-15T04:23:12.320Z,81.04
2023-04-15T04:25:43.429Z,79.54
2023-04-15T04:28:09.951Z,78.81
2023-04-15T04:30:36.647Z,78.92
2023-04-15T04:33:05.505Z,78.41
2023-04-15T04:35:34.876Z,78.49
2023-04-15T04:38:04.107Z,77.99
2023-04-15T04:40:31.372Z,77.23
2023-04-15T04:42:57.882Z,78.19
2023-04-15T04:45:24.388Z,78.26
2023-04-15T04:47:52.670Z,79.19
2023-04-15T04:50:21.316Z,78.45
2023-04-15T04:52:47.830Z,78.44
2023-04-15T04:55:14.613Z,78.32
2023-04-15T04:57:41.532Z,78.75
2023-04-15T05:00:09.056Z,79.95
2023-04-15T05:02:38.326Z,81.19
2023-04-15T05:05:07.037Z,82.66
2023-04-15T05:07:33.769Z,82.78
2023-04-15T05:10:00.578Z,84.42
2023-04-15T05:12:27.172Z,85.25
2023-04-15T05:14:53.628Z,86.85
2023-04-15T05:17:20.301Z,88.13
2023-04-15T05:19:46.836Z,89.28
2023-04-15T05:22:13.327Z,89.01
2023-04-15T05:24:39.979Z,88.78
2023-04-15T05:27:06.505Z,91.01
2023-04-15T05:29:33.030Z,92.05
2023-04-15T05:31:59.669Z,92.54
2023-04-15T05:34:26.406Z,92.58
2023-04-15T05:36:52.917Z,93.77
2023-04-15T05:39:19.592Z,94.53
2023-04-15T05:41:48.514Z,95.26
2023-04-15T05:44:15.055Z,95.92
2023-04-15T05:46:42.028Z,95.72
2023-04-15T05:49:08.514Z,95.45
2023-04-15T05:51:35.036Z,94.25
2023-04-15T05:54:08.512Z,93.76
2023-04-15T05:56:35.195Z,93.48
2023-04-15T05:59:01.824Z,93.56
2023-04-15T06:01:28.472Z,93.70
2023-04-15T06:03:55.561Z,93.98
2023-04-15T06:06:24.565Z,94.28
2023-04-15T06:08:52.788Z,94.68
2023-04-15T06:11:21.442Z,94.65
2023-04-15T06:13:51.776Z,94.45
2023-04-15T06:16:18.326Z,94.61
2023-04-15T06:18:49.496Z,93.82
2023-04-15T06:21:16.067Z,93.66
2023-04-15T06:23:42.974Z,92.92
2023-04-15T06:26:09.507Z,93.36
2023-04-15T06:28:36.162Z,93.93
2023-04-15T06:31:03.223Z,94.37
2023-04-15T06:33:29.702Z,95.33
2023-04-15T06:35:56.195Z,96.75
2023-04-15T06:38:24.468Z,96.94
2023-04-15T06:40:51.063Z,96.58
2023-04-15T06:43:20.252Z,98.74
2023-04-15T06:45:49.595Z,99.43
2023-04-15T06:48:16.286Z,99.06
2023-04-15T06:50:42.829Z,97.53
2023-04-15T06:53:09.522Z,98.77
2023-04-15T06:55:40.253Z,97.54
2023-04-15T06:58:06.863Z,98.23
2023-04-15T07:00:35.858Z,98.90
2023-04-15T07:03:03.860Z,98.15
2023-04-15T07:05:31.072Z,98.73
2023-04-15T07:08:04.254Z,100.00
2023-04-15T07:10:30.952Z,99.91
2023-04-15T07:12:57.455Z,100.00
2023-04-15T07:15:25.700Z,99.84
2023-04-15T07:17:52.226Z,99.16
2023-04-15T07:20:18.936Z,99.92
2023-04-15T07:22:47.206Z,99.03
2023-04-15T07:25:13.691Z,99.15
2023-04-15T07:27:40.204Z,99.83
2023-04-15T07:30:09.500Z,100.00
2023-04-15T07:32:41.125Z,100.00
2023-04-15T07:35:08.475Z,99.56
2023-04-15T07:37:37.253Z,100.00
2023-04-15T07:40:05.075Z,100.00
2023-04-15T07:42:31.759Z,100.00
2023-04-15T07:45:10.307Z,100.00
2023-04-15T07:47:42.170Z,100.00
2023-04-15T07:50:11.216Z,100.00
2023-04-15T07:52:42.707Z,100.00
2023-04-15T07:55:09.809Z,100.00
2023-04-15T07:57:38.638Z,100.00
2023-04-15T08:00:07.816Z,100.00
2023-04-15T08:02:35.891Z,100.00
2023-04-15T08:05:04.618Z,100.00
2023-04-15T08:07:31.841Z,100.00
2023-04-15T08:10:02.384Z,100.00
2023-04-15T08:12:28.956Z,100.00
2023-04-15T08:14:56.889Z,100.00
2023-04-15T08:17:24.084Z,100.00
2023-04-15T08:19:50.815Z,100.00
2023-04-15T08:22:20.626Z,100.00
2023-04-15T08:24:48.423Z,100.00
2023-04-15T08:27:15.018Z,100.00
2023-04-15T08:29:43.252Z,100.00
2023-04-15T08:32:09.723Z,100.00
2023-04-15T08:34:36.384Z,100.00
2023-04-15T08:37:04.909Z,100.00
2023-04-15T08:39:31.466Z,100.00
2023-04-15T08:42:02.775Z,100.00
2023-04-15T08:44:33.539Z,100.00
2023-04-15T08:47:04.002Z,100.00
2023-04-15T08:49:31.964Z,100.00
2023-04-15T08:52:01.381Z,100.00
2023-04-15T08:54:31.829Z,100.00
2023-04-15T08:56:58.838Z,100.00
2023-04-15T08:59:25.955Z,100.00
2023-04-15T09:01:53.366Z,100.00
2023-04-15T09:04:20.088Z,100.00
2023-04-15T09:06:49.296Z,100.00
2023-04-15T09:09:15.792Z,100.00
2023-04-15T09:11:42.688Z,100.00
2023-04-15T09:14:13.940Z,100.00
2023-04-15T09:17:00.884Z,100.00
2023-04-15T09:19:32.237Z,100.00
2023-04-15T09:21:59.669Z,100.00
2023-04-15T09:24:41.784Z,100.00
2023-04-15T09:27:08.343Z,99.48
2023-04-15T09:29:34.875Z,99.52
2023-04-15T09:32:12.471Z,100.00
2023-04-15T09:34:39.170Z,100.00
2023-04-15T09:37:07.590Z,99.56
2023-04-15T09:39:53.882Z,100.00
2023-04-15T09:42:26.913Z,98.51
2023-04-15T09:44:53.617Z,98.90
2023-04-15T09:47:36.039Z,100.00
2023-04-15T09:50:02.753Z,99.71
2023-04-15T09:52:30.076Z,98.44
2023-04-15T09:54:58.972Z,99.13
2023-04-15T09:57:25.783Z,99.65
2023-04-15T09:59:52.349Z,100.00
2023-04-15T10:02:21.521Z,100.00
2023-04-15T10:04:48.874Z,100.00
2023-04-15T10:07:15.835Z,100.00
2023-04-15T10:09:52.125Z,100.00
2023-04-15T10:12:19.923Z,100.00
2023-04-15T10:14:56.873Z,100.00
2023-04-15T10:17:26.385Z,100.00
2023-04-15T10:19:55.047Z,100.00
2023-04-15T10:22:25.128Z,100.00
2023-04-15T10:24:52.593Z,100.00
2023-04-15T10:27:20.416Z,100.00
2023-04-15T10:29:52.678Z,100.00
2023-04-15T10:32:21.299Z,100.00
2023-04-15T10:34:52.452Z,100.00
2023-04-15T10:37:24.285Z,100.00
2023-04-15T10:39:51.149Z,100.00
2023-04-15T10:42:19.765Z,100.00
2023-04-15T10:44:54.019Z,100.00
2023-04-15T10:47:22.054Z,100.00
2023-04-15T10:49:58.892Z,100.00
2023-04-15T10:52:28.009Z,100.00
2023-04-15T10:55:18.829Z,100.00
2023-04-15T10:57:45.703Z,100.00
2023-04-15T11:00:16.581Z,100.00
2023-04-15T11:02:48.820Z,100.00
2023-04-15T11:05:17.146Z,100.00
2023-04-15T11:07:55.217Z,100.00
2023-04-15T11:10:31.090Z,100.00
2023-04-15T11:13:13.874Z,100.00
2023-04-15T11:15:42.330Z,100.00
2023-04-15T11:18:12.206Z,100.00
2023-04-15T11:20:40.428Z,100.00
2023-04-15T11:23:14.745Z,100.00
2023-04-15T11:25:44.773Z,100.00
2023-04-15T11:28:12.504Z,100.00
2023-04-15T11:30:39.984Z,100.00
2023-04-15T11:33:13.592Z,100.00
2023-04-15T11:35:41.983Z,100.00
2023-04-15T11:38:25.149Z,100.00
2023-04-15T11:40:54.540Z,100.00
2023-04-15T11:43:22.804Z,100.00
2023-04-15T11:45:56.571Z,100.00
2023-04-15T11:48:28.306Z,100.00
2023-04-15T11:51:08.351Z,100.00
2023-04-15T11:53:49.864Z,100.00
2023-04-15T11:56:23.740Z,100.00
2023-04-15T11:58:57.072Z,100.00
2023-04-15T12:01:44.045Z,100.00
2023-04-15T12:04:23.533Z,100.00
2023-04-15T12:06:51.888Z,100.00
2023-04-15T12:09:20.286Z,100.00
2023-04-15T12:11:48.020Z,100.00
2023-04-15T12:14:31.267Z,100.00
2023-04-15T12:17:05.355Z,100.00
2023-04-15T12:19:36.620Z,100.00
2023-04-15T12:22:13.385Z,100.00
2023-04-15T12:24:46.030Z,100.00
2023-04-15T12:27:14.388Z,100.00
2023-04-15T12:29:43.169Z,100.00
2023-04-15T12:32:14.155Z,100.00
2023-04-15T12:34:42.519Z,100.00
2023-04-15T12:37:11.541Z,100.00
2023-04-15T12:39:40.162Z,100.00
2023-04-15T12:42:07.664Z,100.00
2023-04-15T12:44:35.767Z,100.00
2023-04-15T12:47:04.233Z,100.00
2023-04-15T12:49:32.593Z,100.00
2023-04-15T12:52:00.732Z,100.00
2023-04-15T12:54:31.565Z,98.45
2023-04-15T12:56:59.261Z,98.15
2023-04-15T12:59:26.000Z,97.73
2023-04-15T13:01:54.600Z,98.32
2023-04-15T13:04:22.340Z,99.22
2023-04-15T13:06:52.631Z,99.48
2023-04-15T13:09:19.323Z,97.93
2023-04-15T13:11:46.007Z,96.59
2023-04-15T13:14:13.100Z,97.51
2023-04-15T13:16:41.780Z,96.44
2023-04-15T13:19:08.589Z,96.31
2023-04-15T13:21:36.260Z,95.78
2023-04-15T13:24:04.396Z,95.19
2023-04-15T13:26:31.718Z,95.82
2023-04-15T13:28:58.283Z,95.43
2023-04-15T13:31:29.487Z,94.86
2023-04-15T13:33:57.151Z,96.20
2023-04-15T13:36:23.636Z,96.23
2023-04-15T13:38:52.239Z,96.06
2023-04-15T13:41:18.959Z,95.16
2023-04-15T13:43:47.701Z,96.23
2023-04-15T13:46:16.409Z,96.02
2023-04-15T13:48:42.996Z,95.92
2023-04-15T13:51:09.732Z,96.13
2023-04-15T13:53:39.813Z,95.96
2023-04-15T13:56:07.730Z,96.13
2023-04-15T13:58:34.361Z,96.23
2023-04-15T14:01:05.197Z,96.65
2023-04-15T14:03:32.823Z,96.60
2023-04-15T14:05:59.608Z,96.97
2023-04-15T14:08:32.670Z,98.14
2023-04-15T14:10:59.196Z,98.62
2023-04-15T14:13:25.926Z,97.76
2023-04-15T14:16:00.807Z,97.50
2023-04-15T14:18:27.396Z,96.93
2023-04-15T14:20:57.432Z,96.67
2023-04-15T14:23:25.730Z,97.15
2023-04-15T14:25:53.223Z,96.20
2023-04-15T14:28:21.630Z,95.95
2023-04-15T14:30:50.451Z,96.13
2023-04-15T14:33:17.173Z,95.13
2023-04-15T14:35:43.700Z,95.27
2023-04-15T14:38:11.589Z,94.08
2023-04-15T14:40:38.357Z,93.61
2023-04-15T14:43:04.857Z,93.37
2023-04-15T14:45:31.508Z,91.85
2023-04-15T14:47:59.334Z,90.38
2023-04-15T14:50:25.982Z,89.95
2023-04-15T14:52:52.571Z,88.59
2023-04-15T14:55:19.082Z,88.42
2023-04-15T14:57:45.675Z,88.72
2023-04-15T15:00:15.946Z,88.40
2023-04-15T15:02:43.172Z,89.07
2023-04-15T15:05:10.838Z,88.37
2023-04-15T15:07:41.570Z,88.62
2023-04-15T15:10:08.265Z,88.64
2023-04-15T15:12:34.885Z,89.62
2023-04-15T15:15:15.779Z,90.59
2023-04-15T15:17:52.021Z,90.73
2023-04-15T15:20:23.808Z,90.68
2023-04-15T15:22:50.723Z,90.00
2023-04-15T15:25:17.401Z,89.91
2023-04-15T15:27:44.108Z,89.21
2023-04-15T15:30:11.246Z,89.08
2023-04-15T15:32:41.042Z,87.26
2023-04-15T15:35:09.912Z,86.82
2023-04-15T15:37:37.378Z,85.96
2023-04-15T15:40:08.008Z,84.05
2023-04-15T15:42:34.799Z,82.98
2023-04-15T15:45:04.121Z,82.38
2023-04-15T15:47:30.879Z,80.72
2023-04-15T15:49:57.676Z,80.16
2023-04-15T15:52:24.188Z,80.72
2023-04-15T15:54:50.715Z,81.20
2023-04-15T15:57:21.781Z,81.19
2023-04-15T15:59:48.267Z,82.58
2023-04-15T16:02:14.917Z,80.94
2023-04-15T16:04:45.324Z,81.89
2023-04-15T16:07:12.094Z,83.17
2023-04-15T16:09:41.171Z,82.90
2023-04-15T16:12:09.432Z,83.09
2023-04-15T16:14:36.522Z,82.96
2023-04-15T16:17:03.005Z,82.00
2023-04-15T16:19:29.704Z,82.37
2023-04-15T16:21:56.636Z,82.11
2023-04-15T16:24:23.200Z,83.04
2023-04-15T16:26:51.491Z,81.86
2023-04-15T16:29:18.001Z,83.36
2023-04-15T16:31:44.583Z,83.27
2023-04-15T16:34:17.800Z,83.08
2023-04-15T16:36:44.503Z,83.43
2023-04-15T16:39:11.077Z,82.70
2023-04-15T16:41:38.732Z,83.00
2023-04-15T16:44:05.542Z,83.21
2023-04-15T16:46:32.269Z,83.77
2023-04-15T16:48:58.971Z,84.17
2023-04-15T16:51:25.914Z,84.04
2023-04-15T16:53:52.409Z,85.49
2023-04-15T16:56:21.536Z,86.38
2023-04-15T16:58:48.214Z,86.03
2023-04-15T17:01:14.782Z,85.33
2023-04-15T17:03:41.608Z,85.84
2023-04-15T17:06:08.201Z,85.18
2023-04-15T17:08:34.702Z,84.62
2023-04-15T17:11:09.037Z,85.55
2023-04-15T17:13:35.573Z,84.12
2023-04-15T17:16:02.527Z,84.42
2023-04-15T17:18:33.772Z,83.21
2023-04-15T17:21:00.338Z,82.29
2023-04-15T17:23:27.318Z,82.06
2023-04-15T17:25:54.149Z,82.46
2023-04-15T17:28:20.656Z,82.29
2023-04-15T17:30:47.461Z,81.62
2023-04-15T17:33:26.139Z,82.45
2023-04-15T17:36:02.576Z,83.50
2023-04-15T17:38:29.304Z,86.40
2023-04-15T17:40:55.758Z,88.46
2023-04-15T17:43:22.296Z,89.68
2023-04-15T17:45:48.945Z,90.22
2023-04-15T17:48:18.914Z,91.12
2023-04-15T17:50:45.822Z,91.80
2023-04-15T17:53:14.523Z,92.29
2023-04-15T17:55:41.103Z,92.40
2023-04-15T17:58:07.576Z,92.36
2023-04-15T18:00:36.600Z,92.50
2023-04-15T18:03:03.339Z,92.46
2023-04-15T18:05:30.271Z,92.78
2023-04-15T18:07:58.491Z,92.43
2023-04-15T18:10:25.034Z,92.38
2023-04-15T18:12:51.785Z,92.21
2023-04-15T18:15:18.867Z,92.81
2023-04-15T18:17:45.667Z,93.33
2023-04-15T18:20:12.911Z,93.22
2023-04-15T18:22:39.590Z,92.88
2023-04-15T18:25:08.691Z,92.69
2023-04-15T18:27:35.836Z,92.10
2023-04-15T18:30:04.570Z,91.64
2023-04-15T18:32:32.683Z,91.21
2023-04-15T18:34:59.448Z,91.33
2023-04-15T18:37:29.458Z,91.29
2023-04-15T18:39:56.090Z,91.73
2023-04-15T18:42:23.794Z,91.91
2023-04-15T18:44:50.459Z,91.80
2023-04-15T18:47:17.098Z,91.96
2023-04-15T18:49:43.914Z,91.98
2023-04-15T18:52:13.475Z,92.06
2023-04-15T18:54:40.017Z,92.34
2023-04-15T18:57:06.976Z,92.29
2023-04-15T19:02:35.435Z,93.00
2023-04-15T19:05:04.260Z,93.46
2023-04-15T19:07:31.290Z,93.52
2023-04-15T19:09:59.624Z,94.21
2023-04-15T19:12:26.181Z,95.14
2023-04-15T19:14:53.021Z,95.68
2023-04-15T19:17:19.873Z,96.12
2023-04-15T19:19:48.631Z,96.28
2023-04-15T19:22:15.940Z,97.09
2023-04-15T19:24:47.092Z,97.16
2023-04-15T19:27:13.893Z,97.64
2023-04-15T19:29:40.695Z,98.13
2023-04-15T19:32:09.473Z,98.52
2023-04-15T19:34:36.036Z,98.82
2023-04-15T19:37:02.551Z,98.83
2023-04-15T19:39:35.930Z,99.08
2023-04-15T19:42:02.836Z,99.02
2023-04-15T19:44:31.707Z,99.25
2023-04-15T19:47:00.104Z,99.98
2023-04-15T19:49:26.965Z,100.00
2023-04-15T19:51:53.488Z,100.00
2023-04-15T19:54:21.732Z,100.00
2023-04-15T19:56:48.609Z,100.00
2023-04-15T19:59:15.123Z,100.00
2023-04-15T20:01:43.433Z,100.00
2023-04-15T20:04:10.486Z,100.00
2023-04-15T20:06:37.084Z,100.00
2023-04-15T20:09:07.377Z,100.00
2023-04-15T20:12:06.132Z,100.00
2023-04-15T20:14:22.086Z,100.00
2023-04-15T20:16:48.825Z,100.00
2023-04-15T20:19:15.346Z,100.00
2023-04-15T20:21:43.727Z,100.00
2023-04-15T20:24:10.865Z,100.00
2023-04-15T20:26:37.382Z,100.00
2023-04-15T20:29:11.637Z,100.00
2023-04-15T20:31:38.171Z,100.00
2023-04-15T20:34:04.793Z,100.00
2023-04-15T20:36:33.633Z,100.00
2023-04-15T20:39:00.356Z,100.00
2023-04-15T20:41:29.131Z,100.00
2023-04-15T20:43:55.821Z,100.00
2023-04-15T20:46:22.757Z,100.00
2023-04-15T20:48:50.571Z,100.00
2023-04-15T20:51:18.828Z,99.34
2023-04-15T20:53:49.766Z,99.09
2023-04-15T20:56:16.324Z,99.65
2023-04-15T20:58:42.927Z,99.33
2023-04-15T21:01:09.533Z,99.97
2023-04-15T21:03:36.399Z,100.00
2023-04-15T21:06:07.515Z,99.79
2023-04-15T21:08:33.966Z,100.00
2023-04-15T21:11:00.451Z,100.00
2023-04-15T21:13:27.130Z,100.00
2023-04-15T21:15:54.416Z,100.00
2023-04-15T21:18:23.377Z,100.00
2023-04-15T21:21:02.519Z,100.00
2023-04-15T21:23:31.516Z,100.00
2023-04-15T21:25:58.838Z,100.00
2023-04-15T21:28:28.129Z,100.00
2023-04-15T21:30:54.627Z,100.00
2023-04-15T21:33:21.169Z,100.00
2023-04-15T21:35:52.336Z,100.00
2023-04-15T21:38:19.592Z,100.00
2023-04-15T21:40:49.827Z,100.00
2023-04-15T21:43:18.337Z,100.00
2023-04-15T21:46:00.429Z,100.00
2023-04-15T21:48:33.427Z,100.00
2023-04-15T21:51:01.706Z,100.00
2023-04-15T21:53:30.025Z,100.00
2023-04-15T21:55:58.556Z,100.00
2023-04-15T21:58:25.160Z,100.00
2023-04-15T22:00:52.465Z,100.00
2023-04-15T22:03:21.390Z,100.00
2023-04-15T22:05:48.380Z,100.00
2023-04-15T22:08:15.606Z,100.00
2023-04-15T22:10:42.243Z,100.00
2023-04-15T22:13:11.008Z,100.00
2023-04-15T22:15:37.948Z,100.00
2023-04-15T22:18:08.554Z,100.00
2023-04-15T22:20:35.101Z,100.00
2023-04-15T22:23:03.963Z,100.00
2023-04-15T22:25:35.973Z,100.00
2023-04-15T22:28:03.360Z,100.00
2023-04-15T22:30:29.874Z,100.00
2023-04-15T22:32:56.528Z,100.00
2023-04-15T22:35:23.055Z,100.00
2023-04-15T22:37:49.574Z,100.00
2023-04-15T22:40:16.651Z,100.00
2023-04-15T22:42:43.141Z,100.00
2023-04-15T22:45:10.166Z,100.00
2023-04-15T22:47:36.874Z,100.00
2023-04-15T22:50:03.666Z,100.00
2023-04-15T22:52:31.234Z,100.00
2023-04-15T22:55:00.468Z,100.00
2023-04-15T22:57:28.129Z,100.00
2023-04-15T22:59:54.643Z,100.00
2023-04-15T23:02:21.514Z,100.00
2023-04-15T23:04:48.376Z,100.00
2023-04-15T23:07:14.932Z,100.00
2023-04-15T23:09:46.171Z,100.00
2023-04-15T23:12:13.711Z,100.00
2023-04-15T23:14:40.342Z,100.00
2023-04-15T23:17:06.937Z,100.00
2023-04-15T23:19:33.435Z,100.00
2023-04-15T23:22:03.384Z,100.00
2023-04-15T23:24:30.095Z,100.00
2023-04-15T23:26:57.224Z,100.00
2023-04-15T23:29:23.885Z,100.00
2023-04-15T23:31:51.193Z,100.00
2023-04-15T23:34:19.644Z,100.00
2023-04-15T23:36:46.968Z,100.00
2023-04-15T23:39:13.585Z,100.00
2023-04-15T23:41:40.209Z,100.00
2023-04-15T23:44:07.187Z,100.00
2023-04-15T23:46:42.334Z,100.00
2023-04-15T23:49:08.994Z,100.00
2023-04-15T23:51:35.579Z,100.00
2023-04-15T23:54:04.299Z,100.00
2023-04-15T23:56:31.824Z,100.00
2023-04-15T23:58:58.519Z,100.00
